sensor_id;sensor_type;location;lat;lon;timestamp;pressure;altitude;pressure_sealevel;temperature;humidity
64095;BME280;50353;51.420;5.682;2023-01-26T00:01:23;102301.28;;;-0.09;89.98
64095;BME280;50353;51.420;5.682;2023-01-26T00:03:49;102300.28;;;-0.24;91.42
64095;BME280;50353;51.420;5.682;2023-01-26T00:06:17;102299.75;;;0.22;91.30
64095;BME280;50353;51.420;5.682;2023-01-26T00:08:45;102296.00;;;-0.15;91.98
64095;BME280;50353;51.420;5.682;2023-01-26T00:11:14;102292.72;;;0.04;89.94
64095;BME280;50353;51.420;5.682;2023-01-26T00:13:39;102294.44;;;0.04;90.53
64095;BME280;50353;51.420;5.682;2023-01-26T00:16:13;102285.78;;;0.08;90.40
64095;BME280;50353;51.420;5.682;2023-01-26T00:18:40;102292.88;;;0.33;88.46
64095;BME280;50353;51.420;5.682;2023-01-26T00:21:09;102279.72;;;0.04;90.03
64095;BME280;50353;51.420;5.682;2023-01-26T00:23:35;102280.41;;;-0.15;91.70
64095;BME280;50353;51.420;5.682;2023-01-26T00:26:01;102272.06;;;0.33;88.87
64095;BME280;50353;51.420;5.682;2023-01-26T00:28:27;102266.72;;;0.09;90.54
64095;BME280;50353;51.420;5.682;2023-01-26T00:30:53;102264.88;;;-0.11;91.75
64095;BME280;50353;51.420;5.682;2023-01-26T00:33:18;102261.53;;;0.12;92.07
64095;BME280;50353;51.420;5.682;2023-01-26T00:35:52;102257.94;;;-0.09;91.37
64095;BME280;50353;51.420;5.682;2023-01-26T00:38:18;102257.03;;;-0.15;91.69
64095;BME280;50353;51.420;5.682;2023-01-26T00:40:43;102256.84;;;-0.42;93.32
64095;BME280;50353;51.420;5.682;2023-01-26T00:43:08;102254.50;;;-0.03;92.41
64095;BME280;50353;51.420;5.682;2023-01-26T00:45:34;102249.47;;;0.19;89.69
64095;BME280;50353;51.420;5.682;2023-01-26T00:48:00;102246.06;;;0.29;89.38
64095;BME280;50353;51.420;5.682;2023-01-26T00:50:25;102244.13;;;-0.02;91.24
64095;BME280;50353;51.420;5.682;2023-01-26T00:52:50;102245.97;;;0.15;90.23
64095;BME280;50353;51.420;5.682;2023-01-26T00:55:18;102245.94;;;0.06;89.99
64095;BME280;50353;51.420;5.682;2023-01-26T00:57:43;102240.13;;;0.56;88.05
64095;BME280;50353;51.420;5.682;2023-01-26T01:00:09;102235.41;;;-0.13;89.33
64095;BME280;50353;51.420;5.682;2023-01-26T01:02:37;102231.88;;;-0.23;90.87
64095;BME280;50353;51.420;5.682;2023-01-26T01:05:03;102232.00;;;-0.01;90.33
64095;BME280;50353;51.420;5.682;2023-01-26T01:07:28;102228.16;;;-0.57;92.54
64095;BME280;50353;51.420;5.682;2023-01-26T01:09:53;102227.63;;;-0.08;91.04
64095;BME280;50353;51.420;5.682;2023-01-26T01:12:18;102225.91;;;-0.06;90.53
64095;BME280;50353;51.420;5.682;2023-01-26T01:14:44;102224.22;;;0.01;91.33
64095;BME280;50353;51.420;5.682;2023-01-26T01:17:09;102222.66;;;0.30;89.47
64095;BME280;50353;51.420;5.682;2023-01-26T01:19:34;102218.31;;;0.26;88.54
64095;BME280;50353;51.420;5.682;2023-01-26T01:22:00;102209.59;;;0.23;89.70
64095;BME280;50353;51.420;5.682;2023-01-26T01:24:25;102215.50;;;-0.08;90.60
64095;BME280;50353;51.420;5.682;2023-01-26T01:26:50;102217.28;;;-0.04;90.79
64095;BME280;50353;51.420;5.682;2023-01-26T01:29:16;102219.03;;;0.07;90.81
64095;BME280;50353;51.420;5.682;2023-01-26T01:31:41;102215.94;;;-0.63;92.74
64095;BME280;50353;51.420;5.682;2023-01-26T01:34:07;102211.91;;;-0.27;93.80
64095;BME280;50353;51.420;5.682;2023-01-26T01:36:32;102205.81;;;-0.35;92.89
64095;BME280;50353;51.420;5.682;2023-01-26T01:38:58;102204.88;;;-0.40;93.85
64095;BME280;50353;51.420;5.682;2023-01-26T01:41:23;102202.19;;;-0.57;92.66
64095;BME280;50353;51.420;5.682;2023-01-26T01:43:50;102209.44;;;-0.08;92.84
64095;BME280;50353;51.420;5.682;2023-01-26T01:46:25;102211.16;;;-0.12;92.68
64095;BME280;50353;51.420;5.682;2023-01-26T01:49:07;102208.47;;;-0.24;93.58
64095;BME280;50353;51.420;5.682;2023-01-26T01:51:42;102206.72;;;-0.30;93.39
64095;BME280;50353;51.420;5.682;2023-01-26T01:54:14;102200.00;;;0.11;92.01
64095;BME280;50353;51.420;5.682;2023-01-26T01:56:45;102202.63;;;0.14;91.49
64095;BME280;50353;51.420;5.682;2023-01-26T01:59:12;102208.75;;;0.24;91.18
64095;BME280;50353;51.420;5.682;2023-01-26T02:01:38;102202.75;;;0.36;90.27
64095;BME280;50353;51.420;5.682;2023-01-26T02:04:04;102192.34;;;0.42;89.93
64095;BME280;50353;51.420;5.682;2023-01-26T02:06:35;102199.16;;;0.15;90.79
64095;BME280;50353;51.420;5.682;2023-01-26T02:09:04;102199.31;;;0.44;89.87
64095;BME280;50353;51.420;5.682;2023-01-26T02:11:48;102192.13;;;-0.02;91.86
64095;BME280;50353;51.420;5.682;2023-01-26T02:14:14;102187.91;;;0.19;91.48
64095;BME280;50353;51.420;5.682;2023-01-26T02:16:40;102183.53;;;0.07;91.74
64095;BME280;50353;51.420;5.682;2023-01-26T02:19:15;102184.13;;;-0.39;94.09
64095;BME280;50353;51.420;5.682;2023-01-26T02:21:42;102176.41;;;-0.23;94.66
64095;BME280;50353;51.420;5.682;2023-01-26T02:24:18;102170.50;;;-0.01;93.40
64095;BME280;50353;51.420;5.682;2023-01-26T02:26:45;102192.97;;;-0.06;92.44
64095;BME280;50353;51.420;5.682;2023-01-26T02:29:11;102194.72;;;-0.06;93.47
64095;BME280;50353;51.420;5.682;2023-01-26T02:31:37;102200.81;;;0.01;93.31
64095;BME280;50353;51.420;5.682;2023-01-26T02:34:03;102194.00;;;0.18;92.72
64095;BME280;50353;51.420;5.682;2023-01-26T02:36:31;102194.84;;;0.14;91.37
64095;BME280;50353;51.420;5.682;2023-01-26T02:41:26;102200.03;;;0.15;91.45
64095;BME280;50353;51.420;5.682;2023-01-26T02:44:11;102188.72;;;0.06;90.83
64095;BME280;50353;51.420;5.682;2023-01-26T02:46:37;102190.50;;;0.17;91.86
64095;BME280;50353;51.420;5.682;2023-01-26T02:49:03;102178.34;;;0.04;92.46
64095;BME280;50353;51.420;5.682;2023-01-26T02:51:47;102183.50;;;0.03;93.17
64095;BME280;50353;51.420;5.682;2023-01-26T02:54:12;102174.94;;;0.21;92.40
64095;BME280;50353;51.420;5.682;2023-01-26T02:56:58;102177.38;;;-0.06;94.32
64095;BME280;50353;51.420;5.682;2023-01-26T02:59:23;102174.84;;;0.01;93.76
64095;BME280;50353;51.420;5.682;2023-01-26T03:01:49;102162.69;;;-0.07;94.49
64095;BME280;50353;51.420;5.682;2023-01-26T03:04:16;102170.53;;;0.06;94.34
64095;BME280;50353;51.420;5.682;2023-01-26T03:06:41;102172.34;;;0.27;93.98
64095;BME280;50353;51.420;5.682;2023-01-26T03:09:06;102180.09;;;0.10;94.02
64095;BME280;50353;51.420;5.682;2023-01-26T03:11:31;102178.41;;;0.18;93.67
64095;BME280;50353;51.420;5.682;2023-01-26T03:14:06;102162.88;;;0.40;91.82
64095;BME280;50353;51.420;5.682;2023-01-26T03:16:32;102164.63;;;0.48;90.97
64095;BME280;50353;51.420;5.682;2023-01-26T03:18:57;102165.47;;;0.44;91.59
64095;BME280;50353;51.420;5.682;2023-01-26T03:21:28;102162.03;;;0.48;91.32
64095;BME280;50353;51.420;5.682;2023-01-26T03:24:12;102169.75;;;0.28;91.88
64095;BME280;50353;51.420;5.682;2023-01-26T03:26:56;102161.16;;;0.48;91.12
64095;BME280;50353;51.420;5.682;2023-01-26T03:29:41;102163.66;;;0.20;92.91
64095;BME280;50353;51.420;5.682;2023-01-26T03:32:06;102155.00;;;0.20;93.17
64095;BME280;50353;51.420;5.682;2023-01-26T03:34:31;102161.03;;;0.15;93.41
64095;BME280;50353;51.420;5.682;2023-01-26T03:36:57;102161.00;;;0.09;93.78
64095;BME280;50353;51.420;5.682;2023-01-26T03:39:22;102148.03;;;0.15;94.13
64095;BME280;50353;51.420;5.682;2023-01-26T03:42:06;102151.50;;;0.14;94.37
64095;BME280;50353;51.420;5.682;2023-01-26T03:44:50;102150.69;;;0.31;92.97
64095;BME280;50353;51.420;5.682;2023-01-26T03:47:35;102151.50;;;0.14;94.15
64095;BME280;50353;51.420;5.682;2023-01-26T03:50:19;102155.03;;;0.27;93.29
64095;BME280;50353;51.420;5.682;2023-01-26T03:53:14;102134.16;;;0.07;93.29
64095;BME280;50353;51.420;5.682;2023-01-26T03:55:59;102142.81;;;0.11;94.73
64095;BME280;50353;51.420;5.682;2023-01-26T03:58:46;102145.34;;;-0.05;95.63
64095;BME280;50353;51.420;5.682;2023-01-26T04:01:12;102147.19;;;0.26;94.55
64095;BME280;50353;51.420;5.682;2023-01-26T04:03:44;102145.44;;;0.17;94.76
64095;BME280;50353;51.420;5.682;2023-01-26T04:06:28;102146.34;;;0.30;95.30
64095;BME280;50353;51.420;5.682;2023-01-26T04:09:12;102137.66;;;0.15;95.14
64095;BME280;50353;51.420;5.682;2023-01-26T04:11:37;102147.22;;;0.30;94.33
64095;BME280;50353;51.420;5.682;2023-01-26T04:14:02;102139.44;;;0.27;95.04
64095;BME280;50353;51.420;5.682;2023-01-26T04:16:46;102146.34;;;0.22;94.77
64095;BME280;50353;51.420;5.682;2023-01-26T04:19:30;102134.22;;;0.35;94.61
64095;BME280;50353;51.420;5.682;2023-01-26T04:22:14;102151.53;;;0.24;95.29
64095;BME280;50353;51.420;5.682;2023-01-26T04:24:39;102147.19;;;0.18;94.91
64095;BME280;50353;51.420;5.682;2023-01-26T04:27:04;102145.44;;;0.12;95.76
64095;BME280;50353;51.420;5.682;2023-01-26T04:29:30;102153.13;;;-0.06;96.57
64095;BME280;50353;51.420;5.682;2023-01-26T04:31:55;102148.06;;;0.20;95.91
64095;BME280;50353;51.420;5.682;2023-01-26T04:34:20;102140.28;;;0.29;95.69
64095;BME280;50353;51.420;5.682;2023-01-26T04:36:46;102136.88;;;0.44;94.84
64095;BME280;50353;51.420;5.682;2023-01-26T04:39:11;102142.03;;;0.37;95.17
64095;BME280;50353;51.420;5.682;2023-01-26T04:41:36;102139.50;;;0.52;94.35
64095;BME280;50353;51.420;5.682;2023-01-26T04:44:02;102146.41;;;0.52;95.12
64095;BME280;50353;51.420;5.682;2023-01-26T04:46:27;102144.72;;;0.50;94.88
64095;BME280;50353;51.420;5.682;2023-01-26T04:48:52;102142.94;;;0.45;95.21
64095;BME280;50353;51.420;5.682;2023-01-26T04:51:19;102137.75;;;0.46;94.45
64095;BME280;50353;51.420;5.682;2023-01-26T04:53:46;102135.97;;;0.35;95.15
64095;BME280;50353;51.420;5.682;2023-01-26T04:56:19;102141.19;;;0.42;94.99
64095;BME280;50353;51.420;5.682;2023-01-26T04:58:46;102133.41;;;0.53;95.26
64095;BME280;50353;51.420;5.682;2023-01-26T05:01:11;102133.44;;;0.61;94.06
64095;BME280;50353;51.420;5.682;2023-01-26T05:03:36;102134.28;;;0.44;95.49
64095;BME280;50353;51.420;5.682;2023-01-26T05:06:02;102132.56;;;0.49;95.22
64095;BME280;50353;51.420;5.682;2023-01-26T05:08:27;102134.19;;;0.18;95.73
64095;BME280;50353;51.420;5.682;2023-01-26T05:10:52;102127.31;;;0.37;95.56
64095;BME280;50353;51.420;5.682;2023-01-26T05:13:18;102131.63;;;0.35;95.31
64095;BME280;50353;51.420;5.682;2023-01-26T05:15:43;102129.91;;;0.45;96.09
64095;BME280;50353;51.420;5.682;2023-01-26T05:18:09;102133.34;;;0.27;96.65
64095;BME280;50353;51.420;5.682;2023-01-26T05:20:35;102131.66;;;0.40;96.88
64095;BME280;50353;51.420;5.682;2023-01-26T05:23:00;102136.94;;;0.67;95.42
64095;BME280;50353;51.420;5.682;2023-01-26T05:25:25;102131.69;;;0.57;96.10
64095;BME280;50353;51.420;5.682;2023-01-26T05:27:51;102133.44;;;0.62;95.61
64095;BME280;50353;51.420;5.682;2023-01-26T05:30:17;102127.41;;;0.73;94.58
64095;BME280;50353;51.420;5.682;2023-01-26T05:32:43;102127.41;;;0.77;94.76
64095;BME280;50353;51.420;5.682;2023-01-26T05:35:08;102136.94;;;0.69;94.49
64095;BME280;50353;51.420;5.682;2023-01-26T05:37:34;102139.56;;;0.74;94.37
64095;BME280;50353;51.420;5.682;2023-01-26T05:40:00;102133.44;;;0.59;95.36
64095;BME280;50353;51.420;5.682;2023-01-26T05:42:26;102139.53;;;0.71;95.54
64095;BME280;50353;51.420;5.682;2023-01-26T05:44:52;102142.00;;;0.20;97.44
64095;BME280;50353;51.420;5.682;2023-01-26T05:47:18;102142.91;;;0.32;97.76
64095;BME280;50353;51.420;5.682;2023-01-26T05:49:43;102140.31;;;0.45;97.52
64095;BME280;50353;51.420;5.682;2023-01-26T05:52:18;102120.44;;;0.56;96.66
64095;BME280;50353;51.420;5.682;2023-01-26T05:54:43;102131.69;;;0.58;95.86
64095;BME280;50353;51.420;5.682;2023-01-26T05:57:10;102137.78;;;0.62;96.54
64095;BME280;50353;51.420;5.682;2023-01-26T05:59:36;102140.34;;;0.51;96.96
64095;BME280;50353;51.420;5.682;2023-01-26T06:02:01;102134.31;;;0.55;96.34
64095;BME280;50353;51.420;5.682;2023-01-26T06:04:26;102142.13;;;0.67;96.07
64095;BME280;50353;51.420;5.682;2023-01-26T06:06:53;102136.00;;;0.48;97.05
64095;BME280;50353;51.420;5.682;2023-01-26T06:09:19;102136.94;;;0.80;95.63
64095;BME280;50353;51.420;5.682;2023-01-26T06:11:44;102143.00;;;0.63;96.56
64095;BME280;50353;51.420;5.682;2023-01-26T06:14:09;102147.31;;;0.60;96.45
64095;BME280;50353;51.420;5.682;2023-01-26T06:16:35;102150.78;;;0.62;96.98
64095;BME280;50353;51.420;5.682;2023-01-26T06:19:00;102158.66;;;0.82;96.00
64095;BME280;50353;51.420;5.682;2023-01-26T06:21:25;102149.94;;;0.84;95.43
64095;BME280;50353;51.420;5.682;2023-01-26T06:23:50;102157.78;;;0.77;95.25
64095;BME280;50353;51.420;5.682;2023-01-26T06:26:16;102154.28;;;0.75;95.34
64095;BME280;50353;51.420;5.682;2023-01-26T06:28:41;102154.31;;;0.78;95.58
64095;BME280;50353;51.420;5.682;2023-01-26T06:31:07;102158.59;;;0.66;96.76
64095;BME280;50353;51.420;5.682;2023-01-26T06:33:34;102152.53;;;0.71;96.83
64095;BME280;50353;51.420;5.682;2023-01-26T06:36:06;102156.84;;;0.65;96.71
64095;BME280;50353;51.420;5.682;2023-01-26T06:38:31;102153.41;;;0.80;96.75
64095;BME280;50353;51.420;5.682;2023-01-26T06:41:05;102147.38;;;0.86;95.41
64095;BME280;50353;51.420;5.682;2023-01-26T06:43:33;102144.75;;;0.78;96.19
64095;BME280;50353;51.420;5.682;2023-01-26T06:45:58;102158.66;;;0.82;96.35
64095;BME280;50353;51.420;5.682;2023-01-26T06:48:25;102147.34;;;0.84;95.91
64095;BME280;50353;51.420;5.682;2023-01-26T06:50:51;102151.72;;;0.92;96.08
64095;BME280;50353;51.420;5.682;2023-01-26T06:53:33;102151.72;;;0.92;95.77
64095;BME280;50353;51.420;5.682;2023-01-26T06:55:58;102150.84;;;0.85;95.93
64095;BME280;50353;51.420;5.682;2023-01-26T06:58:24;102159.50;;;0.75;96.69
64095;BME280;50353;51.420;5.682;2023-01-26T07:00:49;102159.53;;;0.96;96.47
64095;BME280;50353;51.420;5.682;2023-01-26T07:03:15;102162.13;;;1.10;95.16
64095;BME280;50353;51.420;5.682;2023-01-26T07:05:40;102163.00;;;0.94;94.97
64095;BME280;50353;51.420;5.682;2023-01-26T07:08:06;102164.72;;;0.86;95.80
64095;BME280;50353;51.420;5.682;2023-01-26T07:10:36;102156.94;;;0.93;95.19
64095;BME280;50353;51.420;5.682;2023-01-26T07:13:03;102158.66;;;1.00;94.48
64095;BME280;50353;51.420;5.682;2023-01-26T07:15:29;102164.75;;;1.03;94.64
64095;BME280;50353;51.420;5.682;2023-01-26T07:17:56;102165.59;;;1.05;94.70
64095;BME280;50353;51.420;5.682;2023-01-26T07:20:21;102163.84;;;0.83;96.01
64095;BME280;50353;51.420;5.682;2023-01-26T07:22:47;102168.19;;;0.83;96.44
64095;BME280;50353;51.420;5.682;2023-01-26T07:25:12;102169.88;;;0.65;96.67
64095;BME280;50353;51.420;5.682;2023-01-26T07:27:37;102159.53;;;0.90;96.28
64095;BME280;50353;51.420;5.682;2023-01-26T07:30:03;102168.19;;;0.91;96.14
64095;BME280;50353;51.420;5.682;2023-01-26T07:32:30;102169.06;;;0.82;96.33
64095;BME280;50353;51.420;5.682;2023-01-26T07:34:55;102171.66;;;0.83;97.17
64095;BME280;50353;51.420;5.682;2023-01-26T07:37:20;102177.69;;;0.72;97.65
64095;BME280;50353;51.420;5.682;2023-01-26T07:39:46;102179.44;;;0.70;98.88
64095;BME280;50353;51.420;5.682;2023-01-26T07:42:13;102175.16;;;0.89;97.35
64095;BME280;50353;51.420;5.682;2023-01-26T07:44:38;102180.34;;;0.78;97.43
64095;BME280;50353;51.420;5.682;2023-01-26T07:47:03;102177.69;;;0.76;98.03
64095;BME280;50353;51.420;5.682;2023-01-26T07:49:28;102180.31;;;0.87;98.04
64095;BME280;50353;51.420;5.682;2023-01-26T07:51:55;102185.53;;;0.84;97.34
64095;BME280;50353;51.420;5.682;2023-01-26T07:54:20;102192.50;;;0.97;97.25
64095;BME280;50353;51.420;5.682;2023-01-26T07:56:46;102194.19;;;0.66;98.21
64095;BME280;50353;51.420;5.682;2023-01-26T07:59:14;102195.06;;;0.76;98.60
64095;BME280;50353;51.420;5.682;2023-01-26T08:01:40;102197.69;;;0.88;98.45
64095;BME280;50353;51.420;5.682;2023-01-26T08:04:05;102197.53;;;0.36;99.33
64095;BME280;50353;51.420;5.682;2023-01-26T08:06:31;102196.72;;;0.49;99.50
64095;BME280;50353;51.420;5.682;2023-01-26T08:08:56;102197.66;;;0.80;99.96
64095;BME280;50353;51.420;5.682;2023-01-26T08:11:22;102201.97;;;0.64;99.11
64095;BME280;50353;51.420;5.682;2023-01-26T08:13:50;102196.81;;;0.74;98.98
64095;BME280;50353;51.420;5.682;2023-01-26T08:16:15;102199.44;;;0.92;98.92
64095;BME280;50353;51.420;5.682;2023-01-26T08:18:42;102200.34;;;1.10;97.82
64095;BME280;50353;51.420;5.682;2023-01-26T08:21:08;102193.38;;;1.06;97.13
64095;BME280;50353;51.420;5.682;2023-01-26T08:23:34;102196.84;;;1.01;97.93
64095;BME280;50353;51.420;5.682;2023-01-26T08:26:03;102196.00;;;1.03;97.78
64095;BME280;50353;51.420;5.682;2023-01-26T08:28:29;102196.00;;;1.12;96.88
64095;BME280;50353;51.420;5.682;2023-01-26T08:30:54;102195.97;;;0.99;97.62
64095;BME280;50353;51.420;5.682;2023-01-26T08:33:20;102196.00;;;1.04;98.43
64095;BME280;50353;51.420;5.682;2023-01-26T08:35:45;102198.59;;;1.23;96.92
64095;BME280;50353;51.420;5.682;2023-01-26T08:38:10;102206.44;;;1.13;97.44
64095;BME280;50353;51.420;5.682;2023-01-26T08:40:36;102209.88;;;1.14;97.72
64095;BME280;50353;51.420;5.682;2023-01-26T08:43:02;102207.25;;;1.08;98.49
64095;BME280;50353;51.420;5.682;2023-01-26T08:45:28;102210.75;;;1.13;98.53
64095;BME280;50353;51.420;5.682;2023-01-26T08:47:53;102205.50;;;0.87;99.29
64095;BME280;50353;51.420;5.682;2023-01-26T08:50:18;102211.59;;;0.99;99.92
64095;BME280;50353;51.420;5.682;2023-01-26T08:52:44;102209.84;;;0.86;100.00
64095;BME280;50353;51.420;5.682;2023-01-26T08:55:09;102207.25;;;1.06;99.67
64095;BME280;50353;51.420;5.682;2023-01-26T08:57:35;102215.06;;;0.95;99.55
64095;BME280;50353;51.420;5.682;2023-01-26T09:00:00;102220.31;;;1.11;99.29
64095;BME280;50353;51.420;5.682;2023-01-26T09:02:25;102216.81;;;1.06;99.24
64095;BME280;50353;51.420;5.682;2023-01-26T09:04:51;102222.00;;;0.90;100.00
64095;BME280;50353;51.420;5.682;2023-01-26T09:07:16;102222.06;;;1.12;100.00
64095;BME280;50353;51.420;5.682;2023-01-26T09:09:41;102223.78;;;1.13;99.48
64095;BME280;50353;51.420;5.682;2023-01-26T09:12:07;102224.63;;;1.06;99.52
64095;BME280;50353;51.420;5.682;2023-01-26T09:14:32;102227.25;;;1.18;99.56
64095;BME280;50353;51.420;5.682;2023-01-26T09:16:57;102224.66;;;1.20;99.86
64095;BME280;50353;51.420;5.682;2023-01-26T09:19:23;102225.50;;;1.17;99.28
64095;BME280;50353;51.420;5.682;2023-01-26T09:21:54;102222.06;;;1.24;99.25
64095;BME280;50353;51.420;5.682;2023-01-26T09:24:20;102228.13;;;1.17;100.00
64095;BME280;50353;51.420;5.682;2023-01-26T09:26:45;102229.81;;;0.92;100.00
64095;BME280;50353;51.420;5.682;2023-01-26T09:29:11;102230.72;;;1.11;100.00
64095;BME280;50353;51.420;5.682;2023-01-26T09:31:36;102229.84;;;1.23;100.00
64095;BME280;50353;51.420;5.682;2023-01-26T09:34:01;102222.06;;;1.33;99.01
64095;BME280;50353;51.420;5.682;2023-01-26T09:36:27;102215.06;;;1.05;99.84
64095;BME280;50353;51.420;5.682;2023-01-26T09:38:53;102209.03;;;1.24;99.85
64095;BME280;50353;51.420;5.682;2023-01-26T09:42:02;102217.72;;;1.26;99.92
64095;BME280;50353;51.420;5.682;2023-01-26T09:44:36;102222.06;;;1.29;99.04
64095;BME280;50353;51.420;5.682;2023-01-26T09:47:13;102234.22;;;1.30;100.00
64095;BME280;50353;51.420;5.682;2023-01-26T09:49:47;102235.06;;;1.15;100.00
64095;BME280;50353;51.420;5.682;2023-01-26T09:52:25;102225.53;;;1.29;100.00
64095;BME280;50353;51.420;5.682;2023-01-26T09:54:53;102221.16;;;1.14;100.00
64095;BME280;50353;51.420;5.682;2023-01-26T09:57:24;102215.13;;;1.43;100.00
64095;BME280;50353;51.420;5.682;2023-01-26T10:00:05;102222.09;;;1.47;99.97
64095;BME280;50353;51.420;5.682;2023-01-26T10:02:50;102225.53;;;1.42;100.00
64095;BME280;50353;51.420;5.682;2023-01-26T10:05:37;102231.59;;;1.25;100.00
64095;BME280;50353;51.420;5.682;2023-01-26T10:08:12;102228.16;;;1.48;100.00
64095;BME280;50353;51.420;5.682;2023-01-26T10:10:55;102221.19;;;1.38;100.00
64095;BME280;50353;51.420;5.682;2023-01-26T10:13:22;102223.81;;;1.47;100.00
64095;BME280;50353;51.420;5.682;2023-01-26T10:15:52;102224.69;;;1.49;100.00
64095;BME280;50353;51.420;5.682;2023-01-26T10:18:24;102217.72;;;1.26;100.00
64095;BME280;50353;51.420;5.682;2023-01-26T10:20:55;102224.63;;;1.03;100.00
64095;BME280;50353;51.420;5.682;2023-01-26T10:23:31;102213.38;;;1.34;100.00
64095;BME280;50353;51.420;5.682;2023-01-26T10:26:23;102216.00;;;1.44;100.00
64095;BME280;50353;51.420;5.682;2023-01-26T10:28:50;102210.75;;;1.48;100.00
64095;BME280;50353;51.420;5.682;2023-01-26T10:31:21;102216.84;;;1.54;100.00
64095;BME280;50353;51.420;5.682;2023-01-26T10:36:29;102213.38;;;1.36;100.00
64095;BME280;50353;51.420;5.682;2023-01-26T10:39:03;102202.09;;;1.40;100.00
64095;BME280;50353;51.420;5.682;2023-01-26T10:41:29;102222.94;;;1.59;100.00
64095;BME280;50353;51.420;5.682;2023-01-26T10:43:57;102213.38;;;1.47;100.00
64095;BME280;50353;51.420;5.682;2023-01-26T10:46:36;102216.84;;;1.46;100.00
64095;BME280;50353;51.420;5.682;2023-01-26T10:51:35;102217.72;;;1.80;100.00
64095;BME280;50353;51.420;5.682;2023-01-26T10:54:25;102204.69;;;1.57;100.00
64095;BME280;50353;51.420;5.682;2023-01-26T10:57:02;102226.41;;;1.75;100.00
64095;BME280;50353;51.420;5.682;2023-01-26T10:59:32;102223.81;;;1.53;100.00
64095;BME280;50353;51.420;5.682;2023-01-26T11:04:35;102224.66;;;1.69;100.00
64095;BME280;50353;51.420;5.682;2023-01-26T11:07:23;102202.06;;;1.65;100.00
64095;BME280;50353;51.420;5.682;2023-01-26T11:09:49;102222.03;;;1.80;100.00
64095;BME280;50353;51.420;5.682;2023-01-26T11:12:19;102224.66;;;1.78;100.00
64095;BME280;50353;51.420;5.682;2023-01-26T11:15:04;102214.19;;;1.91;100.00
64095;BME280;50353;51.420;5.682;2023-01-26T11:17:39;102210.75;;;1.76;100.00
64095;BME280;50353;51.420;5.682;2023-01-26T11:23:08;102208.13;;;1.90;100.00
64095;BME280;50353;51.420;5.682;2023-01-26T11:28:52;102212.50;;;1.74;100.00
64095;BME280;50353;51.420;5.682;2023-01-26T11:37:05;102198.56;;;1.95;100.00
64095;BME280;50353;51.420;5.682;2023-01-26T11:51:23;102201.06;;;2.23;100.00
64095;BME280;50353;51.420;5.682;2023-01-26T11:54:01;102199.25;;;2.44;100.00
64095;BME280;50353;51.420;5.682;2023-01-26T11:56:39;102194.13;;;2.27;100.00
64095;BME280;50353;51.420;5.682;2023-01-26T11:59:12;102194.09;;;2.38;100.00
64095;BME280;50353;51.420;5.682;2023-01-26T12:01:43;102191.47;;;2.36;100.00
64095;BME280;50353;51.420;5.682;2023-01-26T12:04:17;102187.09;;;2.44;100.00
64095;BME280;50353;51.420;5.682;2023-01-26T12:06:45;102184.50;;;2.40;100.00
64095;BME280;50353;51.420;5.682;2023-01-26T12:09:29;102177.53;;;2.37;100.00
64095;BME280;50353;51.420;5.682;2023-01-26T12:12:12;102178.31;;;2.62;100.00
64095;BME280;50353;51.420;5.682;2023-01-26T12:15:05;102171.31;;;2.63;100.00
64095;BME280;50353;51.420;5.682;2023-01-26T12:18:04;102177.34;;;2.79;100.00
64095;BME280;50353;51.420;5.682;2023-01-26T12:26:11;102167.66;;;2.95;100.00
64095;BME280;50353;51.420;5.682;2023-01-26T12:29:22;102162.38;;;3.01;100.00
64095;BME280;50353;51.420;5.682;2023-01-26T12:32:07;102162.31;;;3.12;100.00
64095;BME280;50353;51.420;5.682;2023-01-26T12:34:34;102154.44;;;3.16;100.00
64095;BME280;50353;51.420;5.682;2023-01-26T12:39:48;102157.00;;;3.22;100.00
64095;BME280;50353;51.420;5.682;2023-01-26T12:42:43;102144.75;;;3.28;100.00
64095;BME280;50353;51.420;5.682;2023-01-26T12:45:36;102154.38;;;3.24;100.00
64095;BME280;50353;51.420;5.682;2023-01-26T12:48:21;102149.94;;;3.32;100.00
64095;BME280;50353;51.420;5.682;2023-01-26T12:51:03;102156.00;;;3.36;100.00
64095;BME280;50353;51.420;5.682;2023-01-26T12:53:38;102152.53;;;3.37;100.00
64095;BME280;50353;51.420;5.682;2023-01-26T12:56:22;102138.47;;;3.49;100.00
64095;BME280;50353;51.420;5.682;2023-01-26T12:58:51;102144.63;;;3.42;100.00
64095;BME280;50353;51.420;5.682;2023-01-26T13:01:19;102140.28;;;3.41;100.00
64095;BME280;50353;51.420;5.682;2023-01-26T13:03:54;102141.97;;;3.45;100.00
64095;BME280;50353;51.420;5.682;2023-01-26T13:06:23;102128.88;;;3.49;100.00
64095;BME280;50353;51.420;5.682;2023-01-26T13:09:00;102118.31;;;3.60;100.00
64095;BME280;50353;51.420;5.682;2023-01-26T13:11:48;102117.38;;;3.66;100.00
64095;BME280;50353;51.420;5.682;2023-01-26T13:16:55;102114.56;;;3.83;100.00
64095;BME280;50353;51.420;5.682;2023-01-26T13:24:49;102107.38;;;4.02;100.00
64095;BME280;50353;51.420;5.682;2023-01-26T13:27:30;102103.84;;;4.04;100.00
64095;BME280;50353;51.420;5.682;2023-01-26T13:29:56;102108.88;;;4.23;100.00
64095;BME280;50353;51.420;5.682;2023-01-26T13:34:52;102101.94;;;4.19;100.00
64095;BME280;50353;51.420;5.682;2023-01-26T13:37:43;102099.31;;;4.19;100.00
64095;BME280;50353;51.420;5.682;2023-01-26T13:40:32;102110.28;;;4.46;100.00
64095;BME280;50353;51.420;5.682;2023-01-26T13:45:55;102103.00;;;4.68;100.00
64095;BME280;50353;51.420;5.682;2023-01-26T13:48:39;102103.69;;;4.79;100.00
64095;BME280;50353;51.420;5.682;2023-01-26T13:51:08;102097.72;;;4.69;100.00
64095;BME280;50353;51.420;5.682;2023-01-26T13:53:42;102104.59;;;4.77;100.00
64095;BME280;50353;51.420;5.682;2023-01-26T13:56:21;102103.78;;;4.73;100.00
64095;BME280;50353;51.420;5.682;2023-01-26T13:58:47;102101.13;;;4.76;100.00
64095;BME280;50353;51.420;5.682;2023-01-26T14:01:14;102103.41;;;4.96;100.00
64095;BME280;50353;51.420;5.682;2023-01-26T14:03:39;102102.50;;;4.99;100.00
64095;BME280;50353;51.420;5.682;2023-01-26T14:06:14;102085.97;;;4.95;100.00